sensor_id;sensor_type;location;lat;lon;timestamp;temperature;humidity
47604;DHT22;33326;51.116;6.900;2023-05-07T00:00:34;16.20;99.90
47604;DHT22;33326;51.116;6.900;2023-05-07T00:05:35;16.10;99.90
47604;DHT22;33326;51.116;6.900;2023-05-07T00:10:39;16.20;99.90
47604;DHT22;33326;51.116;6.900;2023-05-07T00:15:41;16.20;99.90
47604;DHT22;33326;51.116;6.900;2023-05-07T00:20:43;16.10;99.90
47604;DHT22;33326;51.116;6.900;2023-05-07T00:25:46;16.20;99.90
47604;DHT22;33326;51.116;6.900;2023-05-07T00:30:48;16.20;99.90
47604;DHT22;33326;51.116;6.900;2023-05-07T00:35:49;16.10;99.90
47604;DHT22;33326;51.116;6.900;2023-05-07T00:40:53;16.10;99.90
47604;DHT22;33326;51.116;6.900;2023-05-07T00:45:55;16.00;99.90
47604;DHT22;33326;51.116;6.900;2023-05-07T00:50:57;15.90;99.90
47604;DHT22;33326;51.116;6.900;2023-05-07T00:56:00;15.90;99.90
47604;DHT22;33326;51.116;6.900;2023-05-07T01:01:02;15.90;99.90
47604;DHT22;33326;51.116;6.900;2023-05-07T01:06:05;15.80;99.90
47604;DHT22;33326;51.116;6.900;2023-05-07T01:11:10;15.80;99.90
47604;DHT22;33326;51.116;6.900;2023-05-07T01:16:12;15.90;99.90
47604;DHT22;33326;51.116;6.900;2023-05-07T01:21:15;15.80;99.90
47604;DHT22;33326;51.116;6.900;2023-05-07T01:26:20;15.80;99.90
47604;DHT22;33326;51.116;6.900;2023-05-07T01:31:23;15.80;99.90
47604;DHT22;33326;51.116;6.900;2023-05-07T01:36:26;15.80;99.90
47604;DHT22;33326;51.116;6.900;2023-05-07T01:41:30;15.70;99.90
47604;DHT22;33326;51.116;6.900;2023-05-07T01:46:32;15.70;99.90
47604;DHT22;33326;51.116;6.900;2023-05-07T01:51:35;15.70;99.90
47604;DHT22;33326;51.116;6.900;2023-05-07T01:56:39;15.70;99.90
47604;DHT22;33326;51.116;6.900;2023-05-07T02:01:41;15.60;99.90
47604;DHT22;33326;51.116;6.900;2023-05-07T02:06:44;15.60;99.90
47604;DHT22;33326;51.116;6.900;2023-05-07T02:11:49;15.50;99.90
47604;DHT22;33326;51.116;6.900;2023-05-07T02:16:53;15.50;99.90
47604;DHT22;33326;51.116;6.900;2023-05-07T02:21:55;15.50;99.90
47604;DHT22;33326;51.116;6.900;2023-05-07T02:26:58;15.40;99.90
47604;DHT22;33326;51.116;6.900;2023-05-07T02:32:00;15.40;99.90
47604;DHT22;33326;51.116;6.900;2023-05-07T02:37:02;15.30;99.90
47604;DHT22;33326;51.116;6.900;2023-05-07T02:42:05;15.30;99.90
47604;DHT22;33326;51.116;6.900;2023-05-07T02:47:07;15.20;99.90
47604;DHT22;33326;51.116;6.900;2023-05-07T02:52:13;15.10;99.90
47604;DHT22;33326;51.116;6.900;2023-05-07T02:57:16;15.00;99.90
47604;DHT22;33326;51.116;6.900;2023-05-07T03:02:18;15.00;99.90
47604;DHT22;33326;51.116;6.900;2023-05-07T03:07:20;14.80;99.90
47604;DHT22;33326;51.116;6.900;2023-05-07T03:12:24;14.70;99.90
47604;DHT22;33326;51.116;6.900;2023-05-07T03:17:25;14.70;99.90
47604;DHT22;33326;51.116;6.900;2023-05-07T03:22:27;14.70;99.90
47604;DHT22;33326;51.116;6.900;2023-05-07T03:27:30;14.60;99.90
47604;DHT22;33326;51.116;6.900;2023-05-07T03:32:32;14.60;99.90
47604;DHT22;33326;51.116;6.900;2023-05-07T03:37:34;14.50;99.90
47604;DHT22;33326;51.116;6.900;2023-05-07T03:42:37;14.50;99.90
47604;DHT22;33326;51.116;6.900;2023-05-07T03:47:39;14.50;99.90
47604;DHT22;33326;51.116;6.900;2023-05-07T03:52:43;14.40;99.90
47604;DHT22;33326;51.116;6.900;2023-05-07T03:57:46;14.40;99.90
47604;DHT22;33326;51.116;6.900;2023-05-07T04:02:48;14.50;99.90
47604;DHT22;33326;51.116;6.900;2023-05-07T04:07:57;14.50;99.90
47604;DHT22;33326;51.116;6.900;2023-05-07T04:13:07;14.50;99.90
47604;DHT22;33326;51.116;6.900;2023-05-07T04:18:10;14.40;99.90
47604;DHT22;33326;51.116;6.900;2023-05-07T04:23:13;14.40;99.90
47604;DHT22;33326;51.116;6.900;2023-05-07T04:28:17;14.50;99.90
47604;DHT22;33326;51.116;6.900;2023-05-07T04:33:19;14.60;99.90
47604;DHT22;33326;51.116;6.900;2023-05-07T04:38:22;14.70;99.90
47604;DHT22;33326;51.116;6.900;2023-05-07T04:43:28;14.80;99.90
47604;DHT22;33326;51.116;6.900;2023-05-07T04:48:30;14.90;99.90
47604;DHT22;33326;51.116;6.900;2023-05-07T04:53:33;15.00;99.90
47604;DHT22;33326;51.116;6.900;2023-05-07T04:58:37;15.00;99.90
47604;DHT22;33326;51.116;6.900;2023-05-07T05:03:39;15.00;99.90
47604;DHT22;33326;51.116;6.900;2023-05-07T05:08:42;15.00;99.90
47604;DHT22;33326;51.116;6.900;2023-05-07T05:13:46;15.10;99.90
47604;DHT22;33326;51.116;6.900;2023-05-07T05:18:53;15.30;99.90
47604;DHT22;33326;51.116;6.900;2023-05-07T05:23:56;15.40;99.90
47604;DHT22;33326;51.116;6.900;2023-05-07T05:29:01;15.40;99.90
47604;DHT22;33326;51.116;6.900;2023-05-07T05:34:05;15.50;99.90
47604;DHT22;33326;51.116;6.900;2023-05-07T05:39:07;15.60;99.90
47604;DHT22;33326;51.116;6.900;2023-05-07T05:44:11;15.60;99.90
47604;DHT22;33326;51.116;6.900;2023-05-07T05:49:13;15.70;99.90
47604;DHT22;33326;51.116;6.900;2023-05-07T05:54:15;15.80;99.90
47604;DHT22;33326;51.116;6.900;2023-05-07T05:59:19;15.80;99.90
47604;DHT22;33326;51.116;6.900;2023-05-07T06:04:21;15.90;99.90
47604;DHT22;33326;51.116;6.900;2023-05-07T06:09:23;15.90;99.90
47604;DHT22;33326;51.116;6.900;2023-05-07T06:14:27;15.90;99.90
47604;DHT22;33326;51.116;6.900;2023-05-07T06:19:31;16.10;99.90
47604;DHT22;33326;51.116;6.900;2023-05-07T06:24:34;16.20;99.90
47604;DHT22;33326;51.116;6.900;2023-05-07T06:29:40;16.30;99.90
47604;DHT22;33326;51.116;6.900;2023-05-07T06:34:47;16.40;99.90
47604;DHT22;33326;51.116;6.900;2023-05-07T06:39:50;16.50;99.90
47604;DHT22;33326;51.116;6.900;2023-05-07T06:44:53;16.60;99.90
47604;DHT22;33326;51.116;6.900;2023-05-07T06:49:56;16.80;99.90
47604;DHT22;33326;51.116;6.900;2023-05-07T06:55:01;16.90;99.90
47604;DHT22;33326;51.116;6.900;2023-05-07T07:00:05;17.10;99.90
47604;DHT22;33326;51.116;6.900;2023-05-07T07:05:16;17.20;99.90
47604;DHT22;33326;51.116;6.900;2023-05-07T07:10:18;17.40;99.90
47604;DHT22;33326;51.116;6.900;2023-05-07T07:15:22;17.50;99.90
47604;DHT22;33326;51.116;6.900;2023-05-07T07:20:26;17.70;99.90
47604;DHT22;33326;51.116;6.900;2023-05-07T07:25:29;17.80;99.90
47604;DHT22;33326;51.116;6.900;2023-05-07T07:30:32;18.00;99.90
47604;DHT22;33326;51.116;6.900;2023-05-07T07:35:34;18.20;99.90
47604;DHT22;33326;51.116;6.900;2023-05-07T07:40:39;18.30;99.90
47604;DHT22;33326;51.116;6.900;2023-05-07T07:45:43;18.50;99.90
47604;DHT22;33326;51.116;6.900;2023-05-07T07:50:48;18.70;99.90
47604;DHT22;33326;51.116;6.900;2023-05-07T07:55:51;18.90;99.90
47604;DHT22;33326;51.116;6.900;2023-05-07T08:00:58;19.00;99.90
47604;DHT22;33326;51.116;6.900;2023-05-07T08:06:00;19.20;99.90
47604;DHT22;33326;51.116;6.900;2023-05-07T08:11:03;19.40;99.90
47604;DHT22;33326;51.116;6.900;2023-05-07T08:16:09;19.50;99.90
47604;DHT22;33326;51.116;6.900;2023-05-07T08:21:13;19.60;99.90
47604;DHT22;33326;51.116;6.900;2023-05-07T08:26:16;19.80;99.90
47604;DHT22;33326;51.116;6.900;2023-05-07T08:31:19;19.90;99.90
47604;DHT22;33326;51.116;6.900;2023-05-07T08:36:21;19.90;99.90
47604;DHT22;33326;51.116;6.900;2023-05-07T08:41:23;20.10;99.90
47604;DHT22;33326;51.116;6.900;2023-05-07T08:46:30;20.60;99.90
47604;DHT22;33326;51.116;6.900;2023-05-07T08:51:33;20.80;99.90
47604;DHT22;33326;51.116;6.900;2023-05-07T08:56:35;21.00;99.90
47604;DHT22;33326;51.116;6.900;2023-05-07T09:01:39;21.30;99.90
47604;DHT22;33326;51.116;6.900;2023-05-07T09:06:41;21.70;99.90
47604;DHT22;33326;51.116;6.900;2023-05-07T09:11:45;21.80;99.90
47604;DHT22;33326;51.116;6.900;2023-05-07T09:16:52;22.10;99.90
47604;DHT22;33326;51.116;6.900;2023-05-07T09:22:01;22.10;99.90
47604;DHT22;33326;51.116;6.900;2023-05-07T09:27:09;22.10;99.90
47604;DHT22;33326;51.116;6.900;2023-05-07T09:32:15;22.60;99.90
47604;DHT22;33326;51.116;6.900;2023-05-07T09:37:17;23.00;99.90
47604;DHT22;33326;51.116;6.900;2023-05-07T09:42:23;23.40;99.90
47604;DHT22;33326;51.116;6.900;2023-05-07T09:47:32;23.40;99.90
47604;DHT22;33326;51.116;6.900;2023-05-07T09:52:35;23.60;99.90
47604;DHT22;33326;51.116;6.900;2023-05-07T09:57:40;23.60;99.90
47604;DHT22;33326;51.116;6.900;2023-05-07T10:02:45;23.40;99.90
47604;DHT22;33326;51.116;6.900;2023-05-07T10:07:50;24.00;99.90
47604;DHT22;33326;51.116;6.900;2023-05-07T10:12:53;24.80;99.90
47604;DHT22;33326;51.116;6.900;2023-05-07T10:18:06;25.30;99.90
47604;DHT22;33326;51.116;6.900;2023-05-07T10:23:13;25.70;99.50
47604;DHT22;33326;51.116;6.900;2023-05-07T10:28:21;25.60;95.70
47604;DHT22;33326;51.116;6.900;2023-05-07T10:33:27;25.80;98.60
47604;DHT22;33326;51.116;6.900;2023-05-07T10:38:31;25.80;99.00
47604;DHT22;33326;51.116;6.900;2023-05-07T10:43:39;25.80;94.60
47604;DHT22;33326;51.116;6.900;2023-05-07T10:49:07;25.90;96.10
47604;DHT22;33326;51.116;6.900;2023-05-07T10:54:23;26.60;96.90
47604;DHT22;33326;51.116;6.900;2023-05-07T10:59:36;26.50;94.10
47604;DHT22;33326;51.116;6.900;2023-05-07T11:05:19;27.30;94.40
47604;DHT22;33326;51.116;6.900;2023-05-07T11:10:47;27.50;92.40
47604;DHT22;33326;51.116;6.900;2023-05-07T11:15:57;28.30;91.80
47604;DHT22;33326;51.116;6.900;2023-05-07T11:21:10;29.00;91.20
47604;DHT22;33326;51.116;6.900;2023-05-07T11:26:20;29.30;90.20
47604;DHT22;33326;51.116;6.900;2023-05-07T11:31:25;29.10;91.00
47604;DHT22;33326;51.116;6.900;2023-05-07T11:36:32;29.70;87.70
47604;DHT22;33326;51.116;6.900;2023-05-07T11:41:37;29.20;89.80
47604;DHT22;33326;51.116;6.900;2023-05-07T11:46:43;29.20;83.80
47604;DHT22;33326;51.116;6.900;2023-05-07T11:51:46;28.50;86.50
47604;DHT22;33326;51.116;6.900;2023-05-07T11:56:49;28.50;84.30
47604;DHT22;33326;51.116;6.900;2023-05-07T12:01:51;27.80;80.80
47604;DHT22;33326;51.116;6.900;2023-05-07T12:06:55;27.80;85.90
47604;DHT22;33326;51.116;6.900;2023-05-07T12:11:57;27.80;83.20
47604;DHT22;33326;51.116;6.900;2023-05-07T12:17:04;27.90;86.30
47604;DHT22;33326;51.116;6.900;2023-05-07T12:22:09;27.90;85.90
47604;DHT22;33326;51.116;6.900;2023-05-07T12:27:10;27.80;85.10
47604;DHT22;33326;51.116;6.900;2023-05-07T12:32:13;27.20;86.80
47604;DHT22;33326;51.116;6.900;2023-05-07T12:37:23;26.60;87.70
47604;DHT22;33326;51.116;6.900;2023-05-07T12:42:24;26.00;87.80
47604;DHT22;33326;51.116;6.900;2023-05-07T12:47:26;25.60;89.30
47604;DHT22;33326;51.116;6.900;2023-05-07T12:52:30;25.30;90.20
47604;DHT22;33326;51.116;6.900;2023-05-07T12:57:38;25.10;91.40
47604;DHT22;33326;51.116;6.900;2023-05-07T13:02:41;25.10;92.10
47604;DHT22;33326;51.116;6.900;2023-05-07T13:07:54;25.10;91.50
47604;DHT22;33326;51.116;6.900;2023-05-07T13:12:56;25.00;91.20
47604;DHT22;33326;51.116;6.900;2023-05-07T13:17:57;25.00;92.90
47604;DHT22;33326;51.116;6.900;2023-05-07T13:23:01;25.00;93.50
47604;DHT22;33326;51.116;6.900;2023-05-07T13:28:04;24.90;93.90
47604;DHT22;33326;51.116;6.900;2023-05-07T13:33:06;24.70;95.30
47604;DHT22;33326;51.116;6.900;2023-05-07T13:38:10;24.40;95.80
47604;DHT22;33326;51.116;6.900;2023-05-07T13:43:11;24.10;96.60
47604;DHT22;33326;51.116;6.900;2023-05-07T13:48:13;23.70;97.20
47604;DHT22;33326;51.116;6.900;2023-05-07T13:53:17;23.40;98.60
47604;DHT22;33326;51.116;6.900;2023-05-07T13:58:19;22.90;99.90
47604;DHT22;33326;51.116;6.900;2023-05-07T14:03:21;22.60;99.90
47604;DHT22;33326;51.116;6.900;2023-05-07T14:08:24;22.50;99.90
47604;DHT22;33326;51.116;6.900;2023-05-07T14:13:26;22.30;99.90
47604;DHT22;33326;51.116;6.900;2023-05-07T14:18:28;21.20;99.90
47604;DHT22;33326;51.116;6.900;2023-05-07T14:23:31;20.80;99.90
47604;DHT22;33326;51.116;6.900;2023-05-07T14:28:33;20.40;99.90
47604;DHT22;33326;51.116;6.900;2023-05-07T14:33:35;19.50;99.90
47604;DHT22;33326;51.116;6.900;2023-05-07T14:38:38;18.80;99.90
47604;DHT22;33326;51.116;6.900;2023-05-07T14:43:40;19.20;99.90
47604;DHT22;33326;51.116;6.900;2023-05-07T14:48:42;19.20;99.90
47604;DHT22;33326;51.116;6.900;2023-05-07T14:53:46;19.20;99.90
47604;DHT22;33326;51.116;6.900;2023-05-07T14:58:48;19.10;99.90
47604;DHT22;33326;51.116;6.900;2023-05-07T15:03:50;19.30;99.90
47604;DHT22;33326;51.116;6.900;2023-05-07T15:08:53;19.40;99.90
47604;DHT22;33326;51.116;6.900;2023-05-07T15:13:55;19.40;99.90
47604;DHT22;33326;51.116;6.900;2023-05-07T15:18:57;19.50;99.90
47604;DHT22;33326;51.116;6.900;2023-05-07T15:24:00;19.70;99.90
47604;DHT22;33326;51.116;6.900;2023-05-07T15:29:02;19.50;99.90
47604;DHT22;33326;51.116;6.900;2023-05-07T15:34:08;19.30;99.90
47604;DHT22;33326;51.116;6.900;2023-05-07T15:39:11;19.40;99.90
47604;DHT22;33326;51.116;6.900;2023-05-07T15:44:13;19.40;99.90
47604;DHT22;33326;51.116;6.900;2023-05-07T15:49:15;19.60;99.90
47604;DHT22;33326;51.116;6.900;2023-05-07T15:54:18;19.60;99.90
47604;DHT22;33326;51.116;6.900;2023-05-07T15:59:20;20.20;99.90
47604;DHT22;33326;51.116;6.900;2023-05-07T16:04:22;20.60;99.90
47604;DHT22;33326;51.116;6.900;2023-05-07T16:09:25;21.00;99.90
47604;DHT22;33326;51.116;6.900;2023-05-07T16:14:28;21.10;99.90
47604;DHT22;33326;51.116;6.900;2023-05-07T16:19:30;21.30;99.90
47604;DHT22;33326;51.116;6.900;2023-05-07T16:24:33;21.30;99.90
47604;DHT22;33326;51.116;6.900;2023-05-07T16:29:35;21.20;99.90
47604;DHT22;33326;51.116;6.900;2023-05-07T16:34:37;21.30;99.90
47604;DHT22;33326;51.116;6.900;2023-05-07T16:39:40;21.40;99.90
47604;DHT22;33326;51.116;6.900;2023-05-07T16:44:42;21.30;99.90
47604;DHT22;33326;51.116;6.900;2023-05-07T16:49:44;21.30;99.90
47604;DHT22;33326;51.116;6.900;2023-05-07T16:54:47;21.20;99.90
47604;DHT22;33326;51.116;6.900;2023-05-07T16:59:49;21.00;99.90
47604;DHT22;33326;51.116;6.900;2023-05-07T17:04:51;20.90;99.90
47604;DHT22;33326;51.116;6.900;2023-05-07T17:09:54;20.80;99.90
47604;DHT22;33326;51.116;6.900;2023-05-07T17:14:56;20.70;99.90
47604;DHT22;33326;51.116;6.900;2023-05-07T17:19:57;20.50;99.90
47604;DHT22;33326;51.116;6.900;2023-05-07T17:25:00;20.40;99.90
47604;DHT22;33326;51.116;6.900;2023-05-07T17:30:04;20.20;99.90
47604;DHT22;33326;51.116;6.900;2023-05-07T17:35:07;20.00;99.90
47604;DHT22;33326;51.116;6.900;2023-05-07T17:40:11;19.90;99.90
47604;DHT22;33326;51.116;6.900;2023-05-07T17:45:13;19.90;99.90
47604;DHT22;33326;51.116;6.900;2023-05-07T17:50:15;19.80;99.90
47604;DHT22;33326;51.116;6.900;2023-05-07T17:55:19;19.80;99.90
47604;DHT22;33326;51.116;6.900;2023-05-07T18:00:21;19.80;99.90
47604;DHT22;33326;51.116;6.900;2023-05-07T18:05:23;19.70;99.90
47604;DHT22;33326;51.116;6.900;2023-05-07T18:10:26;19.60;99.90
47604;DHT22;33326;51.116;6.900;2023-05-07T18:15:28;19.60;99.90
47604;DHT22;33326;51.116;6.900;2023-05-07T18:20:30;19.60;99.90
47604;DHT22;33326;51.116;6.900;2023-05-07T18:25:33;19.50;99.90
47604;DHT22;33326;51.116;6.900;2023-05-07T18:30:35;19.50;99.90
47604;DHT22;33326;51.116;6.900;2023-05-07T18:35:37;19.50;99.90
47604;DHT22;33326;51.116;6.900;2023-05-07T18:40:40;19.40;99.90
47604;DHT22;33326;51.116;6.900;2023-05-07T18:45:46;19.40;99.90
47604;DHT22;33326;51.116;6.900;2023-05-07T18:50:48;19.40;99.90
47604;DHT22;33326;51.116;6.900;2023-05-07T18:55:51;19.30;99.90
47604;DHT22;33326;51.116;6.900;2023-05-07T19:00:53;19.30;99.90
47604;DHT22;33326;51.116;6.900;2023-05-07T19:05:55;19.30;99.90
47604;DHT22;33326;51.116;6.900;2023-05-07T19:10:58;19.20;99.90
47604;DHT22;33326;51.116;6.900;2023-05-07T19:16:00;19.10;99.90
47604;DHT22;33326;51.116;6.900;2023-05-07T19:21:02;19.00;99.90
47604;DHT22;33326;51.116;6.900;2023-05-07T19:26:05;18.90;99.90
47604;DHT22;33326;51.116;6.900;2023-05-07T19:31:07;18.80;99.90
47604;DHT22;33326;51.116;6.900;2023-05-07T19:36:09;18.80;99.90
47604;DHT22;33326;51.116;6.900;2023-05-07T19:41:12;18.70;99.90
47604;DHT22;33326;51.116;6.900;2023-05-07T19:46:14;18.70;99.90
47604;DHT22;33326;51.116;6.900;2023-05-07T19:51:16;18.60;99.90
47604;DHT22;33326;51.116;6.900;2023-05-07T19:56:19;18.60;99.90
47604;DHT22;33326;51.116;6.900;2023-05-07T20:01:21;18.60;99.90
47604;DHT22;33326;51.116;6.900;2023-05-07T20:06:23;18.60;99.90
47604;DHT22;33326;51.116;6.900;2023-05-07T20:11:27;18.50;99.90
47604;DHT22;33326;51.116;6.900;2023-05-07T20:16:29;18.60;99.90
47604;DHT22;33326;51.116;6.900;2023-05-07T20:21:31;18.50;99.90
47604;DHT22;33326;51.116;6.900;2023-05-07T20:26:34;18.60;99.90
47604;DHT22;33326;51.116;6.900;2023-05-07T20:31:36;18.60;99.90
47604;DHT22;33326;51.116;6.900;2023-05-07T20:36:38;18.50;99.90
47604;DHT22;33326;51.116;6.900;2023-05-07T20:41:41;18.50;99.90
47604;DHT22;33326;51.116;6.900;2023-05-07T20:46:44;18.50;99.90
47604;DHT22;33326;51.116;6.900;2023-05-07T20:51:47;18.40;99.90
47604;DHT22;33326;51.116;6.900;2023-05-07T20:56:50;18.40;99.90
47604;DHT22;33326;51.116;6.900;2023-05-07T21:01:52;18.40;99.90
47604;DHT22;33326;51.116;6.900;2023-05-07T21:06:56;18.30;99.90
47604;DHT22;33326;51.116;6.900;2023-05-07T21:11:59;18.20;99.90
47604;DHT22;33326;51.116;6.900;2023-05-07T21:17:01;18.20;99.90
47604;DHT22;33326;51.116;6.900;2023-05-07T21:22:05;18.10;99.90
47604;DHT22;33326;51.116;6.900;2023-05-07T21:27:09;18.00;99.90
47604;DHT22;33326;51.116;6.900;2023-05-07T21:32:10;17.90;99.90
47604;DHT22;33326;51.116;6.900;2023-05-07T21:37:12;17.90;99.90
47604;DHT22;33326;51.116;6.900;2023-05-07T21:42:16;17.90;99.90
47604;DHT22;33326;51.116;6.900;2023-05-07T21:47:18;17.80;99.90
47604;DHT22;33326;51.116;6.900;2023-05-07T21:52:20;17.90;99.90
47604;DHT22;33326;51.116;6.900;2023-05-07T21:57:26;17.90;99.90
47604;DHT22;33326;51.116;6.900;2023-05-07T22:02:28;17.90;99.90
47604;DHT22;33326;51.116;6.900;2023-05-07T22:07:30;17.80;99.90
47604;DHT22;33326;51.116;6.900;2023-05-07T22:12:33;17.80;99.90
47604;DHT22;33326;51.116;6.900;2023-05-07T22:17:35;17.70;99.90
47604;DHT22;33326;51.116;6.900;2023-05-07T22:22:44;17.70;99.90
47604;DHT22;33326;51.116;6.900;2023-05-07T22:27:48;17.70;99.90
47604;DHT22;33326;51.116;6.900;2023-05-07T22:32:50;17.70;99.90
47604;DHT22;33326;51.116;6.900;2023-05-07T22:37:52;17.60;99.90
47604;DHT22;33326;51.116;6.900;2023-05-07T22:42:55;17.60;99.90
47604;DHT22;33326;51.116;6.900;2023-05-07T22:47:57;17.50;99.90
47604;DHT22;33326;51.116;6.900;2023-05-07T22:52:59;17.40;99.90
47604;DHT22;33326;51.116;6.900;2023-05-07T22:58:02;17.30;99.90
47604;DHT22;33326;51.116;6.900;2023-05-07T23:03:03;17.30;99.90
47604;DHT22;33326;51.116;6.900;2023-05-07T23:08:05;17.30;99.90
47604;DHT22;33326;51.116;6.900;2023-05-07T23:13:08;17.20;99.90
47604;DHT22;33326;51.116;6.900;2023-05-07T23:18:16;17.10;99.90
47604;DHT22;33326;51.116;6.900;2023-05-07T23:23:18;17.10;99.90
47604;DHT22;33326;51.116;6.900;2023-05-07T23:28:22;17.00;99.90
47604;DHT22;33326;51.116;6.900;2023-05-07T23:33:23;17.00;99.90
47604;DHT22;33326;51.116;6.900;2023-05-07T23:38:25;17.00;99.90
47604;DHT22;33326;51.116;6.900;2023-05-07T23:43:28;17.00;99.90
47604;DHT22;33326;51.116;6.900;2023-05-07T23:48:30;16.90;99.90
47604;DHT22;33326;51.116;6.900;2023-05-07T23:53:32;16.90;99.90
47604;DHT22;33326;51.116;6.900;2023-05-07T23:58:35;16.80;99.90
